Time;durP1;ratioP1;P1;durP2;ratioP2;P2;SDS_P1;SDS_P2;PMS_P1;PMS_P2;Temp;Humidity;BMP_temperature;BMP_pressure;BME280_temperature;BME280_humidity;BME280_pressure;Samples;Min_cycle;Max_cycle;Signal;HPM_P1;HPM_P2
2021/05/23 00:02:42;;;;;;;8.75;4.90;;;;;;;18.10;100.00;101099.28;4907477;29;20128;-75
2021/05/23 00:05:30;;;;;;;9.10;5.53;;;;;;;18.36;100.00;101097.28;4907344;29;20059;-74
2021/05/23 00:08:18;;;;;;;8.27;4.38;;;;;;;18.40;100.00;101092.69;4907301;29;20469;-74
2021/05/23 00:11:07;;;;;;;6.75;4.22;;;;;;;18.20;100.00;101092.66;4907379;29;20104;-75
2021/05/23 00:13:53;;;;;;;6.68;4.90;;;;;;;18.35;100.00;101077.00;4919344;29;20024;-74
2021/05/23 00:16:39;;;;;;;8.38;4.40;;;;;;;18.18;100.00;101081.28;4920071;29;20050;-75
2021/05/23 00:19:25;;;;;;;8.15;4.63;;;;;;;18.49;100.00;101081.72;4920259;29;20036;-75
2021/05/23 00:22:11;;;;;;;6.90;4.50;;;;;;;18.59;100.00;101083.88;4919861;29;20028;-75
2021/05/23 00:24:57;;;;;;;10.95;4.65;;;;;;;18.24;100.00;101089.81;4920346;29;20099;-74
2021/05/23 00:27:42;;;;;;;7.20;4.65;;;;;;;18.14;100.00;101083.19;4919317;29;20119;-74
2021/05/23 00:30:28;;;;;;;6.82;3.92;;;;;;;18.44;100.00;101086.31;4919947;29;20055;-74
2021/05/23 00:33:14;;;;;;;6.13;3.97;;;;;;;18.48;100.00;101086.13;4933961;29;20091;-73
2021/05/23 00:36:00;;;;;;;7.78;4.43;;;;;;;18.47;100.00;101083.56;4928545;29;20028;-73
2021/05/23 00:38:46;;;;;;;6.10;4.10;;;;;;;18.38;100.00;101084.84;4928771;29;20068;-72
2021/05/23 00:41:32;;;;;;;6.00;3.80;;;;;;;18.60;100.00;101080.28;4930836;29;20338;-74
2021/05/23 00:44:18;;;;;;;3.65;3.00;;;;;;;18.42;100.00;101085.56;4912186;29;20032;-75
2021/05/23 00:47:04;;;;;;;3.47;2.97;;;;;;;18.33;100.00;101085.94;4928531;29;20043;-74
2021/05/23 00:49:49;;;;;;;4.72;2.80;;;;;;;18.30;100.00;101089.56;4913548;29;20102;-75
2021/05/23 00:52:36;;;;;;;3.30;2.90;;;;;;;18.46;100.00;101087.13;4924309;29;20033;-74
2021/05/23 00:55:23;;;;;;;5.43;2.90;;;;;;;18.51;100.00;101079.81;4911190;29;20024;-74
2021/05/23 00:58:09;;;;;;;6.72;2.63;;;;;;;18.57;100.00;101074.28;4921919;29;20059;-74
2021/05/23 01:00:55;;;;;;;3.05;2.50;;;;;;;18.70;100.00;101078.09;4922500;29;20051;-75
2021/05/23 01:03:49;;;;;;;3.13;2.45;;;;;;;18.65;100.00;101075.63;4907054;29;20024;-75
2021/05/23 01:06:36;;;;;;;5.82;2.78;;;;;;;18.56;100.00;101080.47;4919259;29;20043;-75
2021/05/23 01:09:22;;;;;;;5.55;2.38;;;;;;;18.59;100.00;101073.25;4919377;29;20048;-76
2021/05/23 01:12:37;;;;;;;5.95;2.70;;;;;;;18.49;100.00;101077.25;4918868;29;20098;-76
2021/05/23 01:15:36;;;;;;;4.53;2.55;;;;;;;18.44;100.00;101088.97;4901630;29;20520;-76
2021/05/23 01:18:27;;;;;;;4.03;2.50;;;;;;;18.51;100.00;101096.63;4918856;29;20136;-75
2021/05/23 01:21:15;;;;;;;4.75;2.40;;;;;;;18.49;100.00;101087.00;4919398;29;20353;-74
2021/05/23 01:24:06;;;;;;;10.02;3.10;;;;;;;18.46;100.00;101089.78;4918021;29;20430;-75
2021/05/23 01:26:54;;;;;;;8.02;2.30;;;;;;;18.47;100.00;101089.72;4919016;29;20115;-75
2021/05/23 01:29:40;;;;;;;5.80;2.30;;;;;;;18.34;100.00;101090.31;4905731;29;20102;-75
2021/05/23 01:32:26;;;;;;;3.40;2.60;;;;;;;18.54;100.00;101087.66;4905897;29;20472;-75
2021/05/23 01:35:25;;;;;;;3.38;2.40;;;;;;;18.36;100.00;101080.50;4918513;29;20024;-75
2021/05/23 01:38:15;;;;;;;5.53;2.60;;;;;;;18.22;100.00;101081.09;4918778;29;20375;-75
2021/05/23 01:41:07;;;;;;;3.65;2.40;;;;;;;18.25;100.00;101074.78;4918476;29;20028;-75
2021/05/23 01:43:53;;;;;;;3.25;2.38;;;;;;;18.50;100.00;101091.38;4919402;29;20119;-75
2021/05/23 01:46:39;;;;;;;3.72;2.42;;;;;;;18.32;100.00;101093.00;4918424;29;20442;-75
2021/05/23 01:49:25;;;;;;;4.80;2.45;;;;;;;18.26;100.00;101081.81;4906139;29;20043;-74
2021/05/23 01:52:11;;;;;;;2.30;2.10;;;;;;;18.22;100.00;101078.44;4918202;29;20047;-74
2021/05/23 01:54:57;;;;;;;4.32;2.60;;;;;;;18.13;100.00;101072.66;4918848;29;20441;-74
2021/05/23 01:57:43;;;;;;;4.22;2.60;;;;;;;18.26;100.00;101077.38;4918447;29;20036;-75
2021/05/23 02:00:32;;;;;;;3.95;2.30;;;;;;;18.29;100.00;101074.56;4905924;29;20027;-75
2021/05/23 02:03:20;;;;;;;4.13;2.33;;;;;;;18.34;100.00;101079.72;4918067;29;20366;-74
2021/05/23 02:06:06;;;;;;;3.05;2.53;;;;;;;18.19;100.00;101075.03;4905351;29;20032;-75
2021/05/23 02:08:52;;;;;;;2.97;2.40;;;;;;;17.94;100.00;101072.56;4905279;29;20358;-75
2021/05/23 02:11:38;;;;;;;4.07;2.60;;;;;;;17.90;100.00;101065.66;4917936;29;20024;-75
2021/05/23 02:14:23;;;;;;;3.97;2.50;;;;;;;17.73;100.00;101069.94;4918482;29;20361;-75
2021/05/23 02:17:09;;;;;;;3.65;2.30;;;;;;;18.11;100.00;101067.41;4917974;29;20034;-75
2021/05/23 02:19:55;;;;;;;2.85;2.35;;;;;;;17.79;100.00;101061.72;4918175;29;20034;-75
2021/05/23 02:22:43;;;;;;;4.38;2.55;;;;;;;17.85;100.00;101062.31;4917935;29;20043;-75
2021/05/23 02:25:30;;;;;;;2.50;2.30;;;;;;;17.83;100.00;101065.97;4918352;29;20036;-75
2021/05/23 02:28:17;;;;;;;4.90;2.50;;;;;;;17.85;100.00;101070.28;4905182;29;20031;-75
2021/05/23 02:31:03;;;;;;;6.18;2.63;;;;;;;17.84;100.00;101076.50;4905302;29;20132;-75
2021/05/23 02:33:48;;;;;;;3.85;2.50;;;;;;;17.88;100.00;101083.41;4917888;29;20051;-75
2021/05/23 02:36:34;;;;;;;3.35;2.35;;;;;;;17.95;100.00;101089.31;4907224;29;20036;-74
2021/05/23 02:39:21;;;;;;;4.30;2.58;;;;;;;17.86;100.00;101089.72;4921870;29;20043;-74
2021/05/23 02:42:07;;;;;;;3.85;2.47;;;;;;;17.98;100.00;101092.72;4908752;29;20035;-75
2021/05/23 02:44:53;;;;;;;4.18;2.60;;;;;;;17.98;100.00;101091.84;4909167;29;20040;-76
2021/05/23 02:47:40;;;;;;;3.03;2.60;;;;;;;17.98;100.00;101095.38;4921057;29;20032;-75
2021/05/23 02:50:28;;;;;;;3.85;2.78;;;;;;;17.95;100.00;101091.97;4921867;29;20032;-75
2021/05/23 02:53:15;;;;;;;5.65;2.83;;;;;;;17.91;100.00;101091.25;4908539;29;20032;-75
2021/05/23 02:56:00;;;;;;;4.05;2.60;;;;;;;17.97;100.00;101092.78;4908713;29;20103;-75
2021/05/23 02:58:46;;;;;;;3.63;2.55;;;;;;;18.04;100.00;101105.72;4921268;29;20059;-75
2021/05/23 03:01:32;;;;;;;3.38;2.80;;;;;;;17.88;100.00;101098.47;4922335;29;20505;-76
2021/05/23 03:04:18;;;;;;;4.30;2.80;;;;;;;17.99;100.00;101102.41;4908689;29;20036;-76
2021/05/23 03:07:04;;;;;;;3.40;2.65;;;;;;;18.01;100.00;101111.13;4921336;29;20131;-75
2021/05/23 03:09:49;;;;;;;4.22;2.90;;;;;;;17.70;100.00;101107.16;4921328;29;20028;-74
2021/05/23 03:12:36;;;;;;;3.97;2.67;;;;;;;18.06;100.00;101110.97;4908788;29;20024;-75
2021/05/23 03:15:24;;;;;;;6.05;2.83;;;;;;;17.90;100.00;101118.69;4921902;29;20453;-74
2021/05/23 03:18:10;;;;;;;5.45;2.90;;;;;;;17.58;100.00;101115.59;4920999;29;20370;-74
2021/05/23 03:20:56;;;;;;;4.50;2.83;;;;;;;17.99;100.00;101110.34;4921489;29;20059;-74
2021/05/23 03:23:42;;;;;;;4.40;2.65;;;;;;;17.96;100.00;101113.13;4920595;29;20068;-75
2021/05/23 03:26:28;;;;;;;4.95;2.63;;;;;;;18.07;100.00;101110.91;4922206;29;20024;-75
2021/05/23 03:29:13;;;;;;;5.32;2.75;;;;;;;18.06;100.00;101111.84;4920885;29;20027;-74
2021/05/23 03:31:59;;;;;;;10.95;3.40;;;;;;;17.71;100.00;101123.00;4921008;29;20032;-74
2021/05/23 03:34:45;;;;;;;5.80;3.00;;;;;;;17.91;100.00;101117.75;4920632;29;20135;-74
2021/05/23 03:37:30;;;;;;;3.72;3.10;;;;;;;18.14;100.00;101119.44;4920893;29;20107;-74
2021/05/23 03:40:18;;;;;;;5.55;3.10;;;;;;;18.09;100.00;101122.28;4920689;29;20120;-74
2021/05/23 03:43:05;;;;;;;5.95;2.92;;;;;;;18.08;100.00;101127.66;4907897;29;20028;-75
2021/05/23 03:45:51;;;;;;;3.15;2.75;;;;;;;18.15;100.00;101130.00;4908074;29;20057;-75
2021/05/23 03:48:36;;;;;;;5.05;2.70;;;;;;;18.21;100.00;101134.19;4919648;29;20346;-75
2021/05/23 03:51:22;;;;;;;4.75;2.80;;;;;;;18.19;100.00;101131.59;4907935;29;20028;-75
2021/05/23 03:54:09;;;;;;;3.65;2.78;;;;;;;17.75;100.00;101129.91;4907494;29;20024;-75
2021/05/23 03:56:55;;;;;;;4.22;3.20;;;;;;;17.87;100.00;101133.84;4921398;29;20365;-74
2021/05/23 03:59:40;;;;;;;4.88;3.10;;;;;;;17.85;100.00;101127.75;4920749;29;20034;-75
2021/05/23 04:02:26;;;;;;;5.22;2.90;;;;;;;18.08;100.00;101132.94;4920545;29;20039;-75
2021/05/23 04:05:12;;;;;;;3.20;2.90;;;;;;;18.37;100.00;101137.97;4920095;29;20392;-75
2021/05/23 04:07:59;;;;;;;5.20;2.95;;;;;;;18.41;100.00;101144.84;4907637;29;20048;-75
2021/05/23 04:10:54;;;;;;;4.15;3.22;;;;;;;18.59;100.00;101150.22;4907377;29;20032;-75
2021/05/23 04:13:40;;;;;;;4.53;2.92;;;;;;;18.77;100.00;101135.28;4907375;29;20016;-74
2021/05/23 04:16:26;;;;;;;3.42;3.03;;;;;;;18.73;100.00;101146.97;4906980;29;20038;-75
2021/05/23 04:19:12;;;;;;;5.20;3.50;;;;;;;18.90;100.00;101147.94;4920199;29;20457;-74
2021/05/23 04:21:58;;;;;;;3.78;3.10;;;;;;;19.12;100.00;101153.16;4920285;29;20040;-74
2021/05/23 04:24:44;;;;;;;4.97;3.20;;;;;;;19.27;100.00;101157.81;4920062;29;20036;-74
2021/05/23 04:27:29;;;;;;;7.22;3.25;;;;;;;19.20;100.00;101146.56;4919433;29;20028;-75
2021/05/23 04:30:18;;;;;;;4.93;3.33;;;;;;;19.18;100.00;101155.53;4920116;29;20076;-75
2021/05/23 04:33:04;;;;;;;6.80;4.10;;;;;;;19.46;100.00;101158.69;4906890;29;20426;-75
2021/05/23 04:35:51;;;;;;;6.75;3.60;;;;;;;19.32;100.00;101163.75;4906083;29;20046;-75
2021/05/23 04:38:36;;;;;;;4.68;3.50;;;;;;;19.56;100.00;101175.91;4919702;29;20449;-75
2021/05/23 04:41:22;;;;;;;4.43;2.75;;;;;;;19.73;100.00;101181.28;4919382;29;20027;-75
2021/05/23 04:44:08;;;;;;;6.07;3.20;;;;;;;19.62;100.00;101188.91;4907012;29;20074;-75
2021/05/23 04:46:53;;;;;;;8.65;3.67;;;;;;;19.66;100.00;101187.84;4906387;29;20032;-74
2021/05/23 04:49:39;;;;;;;6.13;3.40;;;;;;;19.69;100.00;101197.47;4920300;29;20349;-74
2021/05/23 04:52:25;;;;;;;5.93;3.60;;;;;;;19.92;100.00;101191.91;4919394;29;20063;-75
2021/05/23 04:55:11;;;;;;;3.28;2.97;;;;;;;19.56;100.00;101197.16;4906913;29;20477;-75
2021/05/23 04:57:57;;;;;;;4.18;3.13;;;;;;;19.85;100.00;101204.63;4906438;29;20040;-75
2021/05/23 05:00:43;;;;;;;3.58;2.92;;;;;;;20.07;100.00;101210.66;4919271;29;20032;-75
2021/05/23 05:03:29;;;;;;;6.55;3.50;;;;;;;19.87;100.00;101216.06;4919092;29;20024;-75
2021/05/23 05:06:14;;;;;;;3.88;3.17;;;;;;;19.86;100.00;101225.00;4906265;29;20028;-74
2021/05/23 05:09:01;;;;;;;3.58;3.28;;;;;;;19.99;100.00;101223.47;4918865;29;20153;-75
2021/05/23 05:11:47;;;;;;;5.50;3.38;;;;;;;20.23;100.00;101224.97;4918742;29;20083;-75
2021/05/23 05:14:33;;;;;;;3.22;2.83;;;;;;;20.31;100.00;101225.47;4919345;29;20035;-75
2021/05/23 05:17:19;;;;;;;4.18;3.38;;;;;;;20.21;100.00;101236.63;4918846;29;20028;-75
2021/05/23 05:20:08;;;;;;;3.53;3.00;;;;;;;20.41;100.00;101233.84;4906722;29;20377;-75
2021/05/23 05:22:54;;;;;;;4.78;3.30;;;;;;;20.46;100.00;101234.47;4905843;29;20122;-75
2021/05/23 05:25:40;;;;;;;3.50;3.10;;;;;;;20.77;100.00;101240.84;4918611;29;20028;-76
2021/05/23 05:28:26;;;;;;;5.72;3.60;;;;;;;20.54;100.00;101248.28;4917940;29;20119;-75
2021/05/23 05:31:12;;;;;;;4.75;3.20;;;;;;;20.47;100.00;101247.72;4919279;29;20374;-74
2021/05/23 05:33:58;;;;;;;7.05;3.88;;;;;;;20.45;100.00;101246.91;4905695;29;20036;-74
2021/05/23 05:36:44;;;;;;;6.72;4.40;;;;;;;20.42;100.00;101244.44;4918384;29;20036;-75
2021/05/23 05:39:30;;;;;;;7.30;4.38;;;;;;;20.67;100.00;101252.91;4906194;29;20449;-73
2021/05/23 05:42:16;;;;;;;5.47;3.88;;;;;;;20.85;100.00;101245.78;4904501;29;20111;-77
2021/05/23 05:45:03;;;;;;;8.35;4.60;;;;;;;20.65;100.00;101249.44;4918844;29;20106;-75
2021/05/23 05:47:49;;;;;;;6.38;4.22;;;;;;;21.17;100.00;101250.31;4918194;29;20441;-75
2021/05/23 05:50:34;;;;;;;6.13;4.20;;;;;;;21.21;100.00;101242.09;4919069;29;20028;-75
2021/05/23 05:53:20;;;;;;;13.35;4.40;;;;;;;21.42;100.00;101250.78;4905561;29;20420;-76
2021/05/23 05:56:06;;;;;;;8.20;4.25;;;;;;;21.17;100.00;101245.00;4919792;29;20054;-75
2021/05/23 05:58:52;;;;;;;5.97;3.53;;;;;;;21.77;100.00;101249.72;4928948;29;20091;-76
2021/05/23 06:01:38;;;;;;;7.53;4.10;;;;;;;21.66;100.00;101258.28;4925311;29;20389;-75
2021/05/23 06:04:23;;;;;;;6.32;4.35;;;;;;;21.67;100.00;101253.81;4926783;29;20055;-75
2021/05/23 06:07:09;;;;;;;8.05;4.35;;;;;;;21.13;100.00;101260.28;4923028;29;20059;-75
2021/05/23 06:09:55;;;;;;;7.65;4.22;;;;;;;21.55;100.00;101263.38;4922333;29;20086;-75
2021/05/23 06:12:41;;;;;;;6.20;4.28;;;;;;;21.39;100.00;101272.25;4921789;29;20453;-74
2021/05/23 06:15:27;;;;;;;6.80;4.15;;;;;;;21.13;100.00;101275.44;4924049;29;20035;-74
2021/05/23 06:18:13;;;;;;;4.70;4.13;;;;;;;21.49;100.00;101279.69;4909289;29;20109;-75
2021/05/23 06:20:59;;;;;;;9.80;7.30;;;;;;;21.60;100.00;101287.97;4918907;29;20032;-76
2021/05/23 06:23:45;;;;;;;11.75;9.10;;;;;;;22.12;100.00;101292.22;4918111;29;20035;-76
2021/05/23 06:26:31;;;;;;;10.68;5.18;;;;;;;21.89;100.00;101295.28;4905393;29;20059;-76
2021/05/23 06:29:17;;;;;;;6.10;4.65;;;;;;;21.79;100.00;101296.72;4918223;29;20032;-75
2021/05/23 06:32:03;;;;;;;7.68;4.22;;;;;;;21.82;100.00;101301.06;4918085;29;20031;-75
2021/05/23 06:34:48;;;;;;;7.82;4.05;;;;;;;21.85;100.00;101299.06;4905116;29;20028;-73
2021/05/23 06:37:34;;;;;;;5.80;4.13;;;;;;;21.85;100.00;101295.53;4917686;29;20036;-73
2021/05/23 06:40:20;;;;;;;6.20;4.05;;;;;;;21.68;100.00;101295.56;4917965;29;20028;-73
2021/05/23 06:43:06;;;;;;;6.85;4.13;;;;;;;21.76;100.00;101298.69;4904889;29;20025;-73
2021/05/23 06:45:51;;;;;;;4.45;3.80;;;;;;;22.45;100.00;101300.13;4917534;29;20039;-73
2021/05/23 06:48:37;;;;;;;6.53;4.05;;;;;;;22.94;100.00;101299.00;4903985;29;20087;-73
2021/05/23 06:51:23;;;;;;;6.75;4.43;;;;;;;22.64;100.00;101300.81;4918152;29;20039;-73
2021/05/23 06:54:10;;;;;;;7.45;4.70;;;;;;;22.39;100.00;101297.81;4917865;29;20458;-73
2021/05/23 06:56:55;;;;;;;6.70;4.43;;;;;;;22.49;100.00;101293.69;4918417;29;20036;-74
2021/05/23 06:59:41;;;;;;;6.10;4.50;;;;;;;23.15;100.00;101295.94;4917440;29;20091;-73
2021/05/23 07:02:27;;;;;;;6.07;4.45;;;;;;;23.43;100.00;101309.38;4917565;29;20094;-73
2021/05/23 07:05:13;;;;;;;5.22;4.25;;;;;;;23.76;100.00;101305.56;4917411;29;20032;-74
2021/05/23 07:07:59;;;;;;;5.70;4.20;;;;;;;23.40;100.00;101308.72;4918401;29;20477;-73
2021/05/23 07:10:45;;;;;;;3.72;3.40;;;;;;;23.80;100.00;101301.75;4917371;29;20043;-73
2021/05/23 07:13:31;;;;;;;3.47;3.10;;;;;;;23.80;100.00;101302.63;4917554;29;20020;-73
2021/05/23 07:16:17;;;;;;;8.73;3.63;;;;;;;23.82;100.00;101306.06;4916882;29;20377;-73
2021/05/23 07:19:03;;;;;;;3.88;3.47;;;;;;;23.66;100.00;101304.44;4917665;29;20031;-73
2021/05/23 07:21:48;;;;;;;6.47;3.53;;;;;;;23.51;100.00;101297.34;4918422;29;20088;-73
2021/05/23 07:24:34;;;;;;;6.28;3.50;;;;;;;24.05;100.00;101292.13;4920846;29;20068;-73
2021/05/23 07:27:20;;;;;;;6.28;3.53;;;;;;;24.32;100.00;101293.03;4921199;29;20095;-74
2021/05/23 07:30:06;;;;;;;6.07;3.58;;;;;;;25.10;100.00;101287.72;4907881;29;20040;-73
2021/05/23 07:32:52;;;;;;;6.93;3.35;;;;;;;25.59;100.00;101285.22;4920938;29;20071;-74
2021/05/23 07:35:38;;;;;;;9.18;3.53;;;;;;;25.99;100.00;101295.72;4920477;29;20458;-74
2021/05/23 07:38:24;;;;;;;6.30;4.13;;;;;;;26.26;100.00;101295.53;4921300;29;20036;-74
2021/05/23 07:41:09;;;;;;;7.50;3.95;;;;;;;26.31;96.77;101286.19;4920426;29;20043;-74
2021/05/23 07:43:55;;;;;;;5.93;4.07;;;;;;;26.20;94.61;101280.72;4920299;29;20032;-74
2021/05/23 07:46:41;;;;;;;4.72;3.90;;;;;;;26.08;91.38;101276.25;4920115;29;20032;-73
2021/05/23 07:49:27;;;;;;;6.85;2.97;;;;;;;26.50;82.64;101273.09;4920472;29;20043;-73
2021/05/23 07:52:13;;;;;;;3.38;2.60;;;;;;;26.77;84.95;101272.88;4920337;29;20047;-73
2021/05/23 07:54:59;;;;;;;5.93;2.70;;;;;;;26.73;80.22;101276.78;4920674;29;20060;-73
2021/05/23 07:57:46;;;;;;;4.78;2.40;;;;;;;27.01;75.18;101271.03;4920371;29;20032;-73
2021/05/23 08:00:32;;;;;;;4.65;2.53;;;;;;;26.89;76.36;101274.66;4907166;29;20048;-73
2021/05/23 08:03:18;;;;;;;5.03;2.22;;;;;;;27.06;74.82;101272.38;4919960;29;20521;-73
2021/05/23 08:06:05;;;;;;;4.60;2.25;;;;;;;27.25;71.91;101274.53;4906954;29;20134;-73
2021/05/23 08:08:50;;;;;;;2.92;2.30;;;;;;;28.26;70.17;101261.84;4919413;29;20055;-74
2021/05/23 08:11:36;;;;;;;3.90;2.35;;;;;;;27.98;68.74;101266.88;4906930;29;20028;-73
2021/05/23 08:14:22;;;;;;;6.13;2.50;;;;;;;28.29;71.28;101266.09;4907539;29;20054;-73
2021/05/23 08:17:08;;;;;;;2.67;2.47;;;;;;;28.59;69.68;101258.19;4919906;29;20063;-73
2021/05/23 08:19:54;;;;;;;6.22;2.45;;;;;;;28.37;68.38;101267.16;4907440;29;20111;-73
2021/05/23 08:22:40;;;;;;;2.60;2.22;;;;;;;27.93;68.12;101258.31;4906711;29;20445;-73
2021/05/23 08:25:26;;;;;;;2.70;2.50;;;;;;;28.48;58.71;101263.66;4907110;29;20521;-73
2021/05/23 08:28:12;;;;;;;2.85;2.00;;;;;;;28.29;59.31;101258.84;4907162;29;20171;-73
2021/05/23 08:31:00;;;;;;;2.45;2.25;;;;;;;28.54;55.60;101255.91;4907023;29;20115;-73
2021/05/23 08:33:46;;;;;;;5.22;2.50;;;;;;;28.75;58.64;101266.72;4906412;29;20028;-73
2021/05/23 08:36:32;;;;;;;2.42;2.10;;;;;;;28.45;53.99;101267.44;4919876;29;20032;-73
2021/05/23 08:39:18;;;;;;;4.50;2.00;;;;;;;28.58;55.23;101272.66;4919708;29;20054;-73
2021/05/23 08:42:05;;;;;;;3.03;2.28;;;;;;;29.51;55.54;101273.53;4919276;29;20107;-73
2021/05/23 08:44:50;;;;;;;4.35;2.40;;;;;;;29.14;52.41;101276.84;4919662;29;20111;-73
2021/05/23 08:47:40;;;;;;;5.10;2.10;;;;;;;29.51;50.94;101276.25;4906598;29;20477;-73
2021/05/23 08:50:26;;;;;;;3.95;2.05;;;;;;;29.50;48.40;101270.97;4919552;29;20119;-73
2021/05/23 08:53:12;;;;;;;3.80;2.20;;;;;;;29.16;47.45;101264.94;4906137;29;20049;-73
2021/05/23 08:55:58;;;;;;;2.30;2.10;;;;;;;29.83;47.52;101263.50;4919273;29;20044;-73
2021/05/23 08:58:44;;;;;;;4.15;1.90;;;;;;;30.09;48.17;101271.97;4919182;29;20031;-73
2021/05/23 09:01:29;;;;;;;2.22;2.03;;;;;;;30.01;48.19;101264.53;4920154;29;20028;-74
2021/05/23 09:04:18;;;;;;;5.38;2.58;;;;;;;29.72;48.81;101258.19;4905984;29;20032;-73
2021/05/23 09:07:05;;;;;;;5.30;2.60;;;;;;;29.84;49.90;101250.81;4906064;29;20062;-74
2021/05/23 09:09:50;;;;;;;3.45;2.50;;;;;;;28.65;51.45;101236.94;4919317;29;20096;-74
2021/05/23 09:12:45;;;;;;;3.83;2.38;;;;;;;29.28;51.57;101246.81;4906789;29;20068;-74
2021/05/23 09:15:31;;;;;;;3.13;2.35;;;;;;;29.69;49.09;101250.34;4918563;29;20036;-73
2021/05/23 09:18:17;;;;;;;2.70;2.50;;;;;;;29.84;51.68;101257.09;4918139;29;20024;-73
2021/05/23 09:21:03;;;;;;;3.25;2.58;;;;;;;29.29;52.55;101243.16;4919081;29;20119;-73
2021/05/23 09:23:54;;;;;;;3.33;2.60;;;;;;;30.17;50.30;101256.78;4918575;29;20032;-73
2021/05/23 09:26:49;;;;;;;4.13;2.72;;;;;;;29.93;53.91;101253.56;4906282;29;20032;-73
2021/05/23 09:29:34;;;;;;;3.53;2.50;;;;;;;30.37;51.61;101250.44;4905713;29;20064;-73
2021/05/23 09:32:20;;;;;;;4.07;2.75;;;;;;;29.85;51.05;101255.25;4905824;29;20043;-73
2021/05/23 09:35:09;;;;;;;7.75;2.40;;;;;;;29.88;49.06;101254.97;4918553;29;20459;-72
2021/05/23 09:38:01;;;;;;;2.83;2.50;;;;;;;29.76;47.29;101261.44;4906049;29;20095;-72
2021/05/23 09:40:47;;;;;;;3.95;2.72;;;;;;;29.49;47.60;101248.50;4918240;29;20122;-73
2021/05/23 09:43:32;;;;;;;2.55;2.33;;;;;;;29.37;46.38;101249.56;4918081;29;20442;-72
2021/05/23 09:46:18;;;;;;;2.63;2.20;;;;;;;29.33;46.16;101239.19;4917827;29;20036;-73
2021/05/23 09:49:09;;;;;;;4.78;2.30;;;;;;;29.46;47.62;101239.81;4918886;29;20036;-73
2021/05/23 09:51:55;;;;;;;2.55;2.35;;;;;;;29.48;47.96;101238.69;4917998;29;20031;-72
2021/05/23 09:54:48;;;;;;;3.88;2.33;;;;;;;29.37;48.57;101229.84;4918805;29;20024;-73
2021/05/23 09:57:34;;;;;;;2.47;2.28;;;;;;;29.01;46.80;101239.25;4918405;29;20036;-72
2021/05/23 10:00:20;;;;;;;2.40;2.17;;;;;;;28.83;46.89;101223.75;4918232;29;20429;-73
2021/05/23 10:03:05;;;;;;;3.83;2.20;;;;;;;29.46;44.95;101229.91;4918685;29;20111;-73
2021/05/23 10:05:51;;;;;;;3.55;2.47;;;;;;;29.71;45.40;101242.97;4891630;29;20039;-73
2021/05/23 10:08:37;;;;;;;5.05;2.50;;;;;;;29.40;47.03;101235.81;4917977;29;20064;-73
2021/05/23 10:11:26;;;;;;;5.03;2.50;;;;;;;29.99;46.63;101242.22;4918006;29;20039;-73
2021/05/23 10:14:12;;;;;;;4.63;2.30;;;;;;;29.18;46.96;101243.22;4918640;29;20082;-72
2021/05/23 10:16:58;;;;;;;2.83;2.50;;;;;;;29.14;47.63;101242.63;4918092;29;20028;-73
2021/05/23 10:19:46;;;;;;;3.72;2.35;;;;;;;29.91;46.85;101244.75;4918028;29;20036;-73
2021/05/23 10:22:39;;;;;;;3.28;2.33;;;;;;;29.77;47.55;101246.97;4918270;29;20040;-73
2021/05/23 10:25:27;;;;;;;5.28;2.50;;;;;;;29.72;46.71;101244.66;4918392;29;20032;-73
2021/05/23 10:28:13;;;;;;;2.33;2.10;;;;;;;29.43;47.27;101235.56;4917723;29;20032;-73
2021/05/23 10:31:00;;;;;;;2.63;2.28;;;;;;;29.26;46.47;101238.00;4917950;29;20032;-73
2021/05/23 10:33:53;;;;;;;3.70;2.10;;;;;;;29.65;47.34;101232.69;4917538;29;20032;-73
2021/05/23 10:36:41;;;;;;;5.90;2.35;;;;;;;29.68;47.74;101236.97;4917523;29;20033;-73
2021/05/23 10:39:35;;;;;;;3.20;2.10;;;;;;;29.91;47.43;101233.94;4918229;29;20028;-73
2021/05/23 10:42:26;;;;;;;2.63;2.30;;;;;;;30.07;45.79;101225.28;4904628;29;20354;-73
2021/05/23 10:45:21;;;;;;;4.15;2.78;;;;;;;29.70;45.94;101230.44;4918267;29;20370;-73
2021/05/23 10:48:15;;;;;;;8.27;4.95;;;;;;;29.76;49.35;101227.19;4917364;29;20370;-73
2021/05/23 10:51:15;;;;;;;2.95;2.63;;;;;;;30.40;47.09;101220.41;4905154;29;20028;-73
2021/05/23 10:54:12;;;;;;;4.40;3.90;;;;;;;30.26;46.78;101225.38;4917202;29;20511;-73
2021/05/23 10:56:59;;;;;;;3.20;2.40;;;;;;;29.83;46.92;101231.06;4918492;29;20032;-73
2021/05/23 10:59:56;;;;;;;4.88;3.50;;;;;;;30.18;50.24;101217.09;4920905;29;20453;-73
2021/05/23 11:02:43;;;;;;;3.97;2.97;;;;;;;29.46;52.93;101215.53;4921548;29;20199;-73
2021/05/23 11:05:30;;;;;;;5.45;4.68;;;;;;;29.47;51.51;101211.81;4920746;29;20391;-73
2021/05/23 11:08:16;;;;;;;3.53;3.20;;;;;;;30.57;49.32;101202.59;4921088;29;20052;-74
2021/05/23 11:11:03;;;;;;;6.72;4.78;;;;;;;30.54;49.23;101203.75;4921072;29;20028;-74
2021/05/23 11:13:49;;;;;;;4.85;3.00;;;;;;;30.64;49.38;101201.91;4921589;29;20028;-74
2021/05/23 11:16:44;;;;;;;3.47;2.38;;;;;;;29.95;47.64;101205.66;4921476;29;20068;-73
2021/05/23 11:19:31;;;;;;;3.72;2.20;;;;;;;30.22;46.41;101203.16;4921517;29;20472;-74
2021/05/23 11:22:17;;;;;;;3.53;2.25;;;;;;;30.70;45.56;101193.22;4908379;29;20369;-73
2021/05/23 11:25:03;;;;;;;4.35;2.40;;;;;;;30.89;45.60;101200.47;4908302;29;20028;-74
2021/05/23 11:27:56;;;;;;;3.95;2.30;;;;;;;31.07;43.85;101196.88;4921078;29;20105;-74
2021/05/23 11:30:42;;;;;;;4.35;2.28;;;;;;;31.61;44.11;101198.03;4920611;29;20024;-73
2021/05/23 11:33:27;;;;;;;5.93;2.55;;;;;;;30.47;44.41;101197.22;4921104;29;20028;-73
2021/05/23 11:36:25;;;;;;;2.50;2.30;;;;;;;30.65;44.31;101192.78;4907589;29;20036;-74
2021/05/23 11:39:13;;;;;;;4.65;2.60;;;;;;;31.22;44.31;101194.56;4907933;29;20039;-73
2021/05/23 11:42:02;;;;;;;3.90;2.30;;;;;;;30.54;43.29;101181.25;4919628;29;20035;-73
2021/05/23 11:44:48;;;;;;;3.58;2.20;;;;;;;30.14;40.78;101175.13;4920638;29;20372;-74
2021/05/23 11:47:46;;;;;;;3.38;2.10;;;;;;;30.52;39.95;101175.13;4920174;29;20032;-74
2021/05/23 11:50:32;;;;;;;3.33;2.33;;;;;;;30.79;38.71;101169.88;4920249;29;20114;-73
2021/05/23 11:53:17;;;;;;;4.28;2.17;;;;;;;30.64;39.06;101161.31;4919362;29;20067;-73
2021/05/23 11:56:04;;;;;;;2.38;2.10;;;;;;;30.96;39.19;101163.72;4907742;29;20032;-73
2021/05/23 11:58:58;;;;;;;4.35;2.05;;;;;;;30.89;39.73;101149.03;4920083;29;20028;-74
2021/05/23 12:01:48;;;;;;;6.40;2.30;;;;;;;30.92;40.25;101148.75;4921303;29;20040;-75
2021/05/23 12:04:34;;;;;;;3.92;2.38;;;;;;;30.64;40.97;101147.78;4919340;29;20063;-73
2021/05/23 12:07:20;;;;;;;4.05;2.30;;;;;;;30.39;42.88;101137.56;4929445;29;20040;-73
2021/05/23 12:10:06;;;;;;;3.63;2.63;;;;;;;30.64;42.52;101133.41;4936520;29;20020;-72
2021/05/23 12:12:53;;;;;;;2.83;2.03;;;;;;;30.93;42.29;101126.97;4938835;29;20024;-73
2021/05/23 12:15:38;;;;;;;3.03;2.25;;;;;;;30.98;42.75;101121.94;4937253;29;20024;-73
2021/05/23 12:18:36;;;;;;;4.45;2.50;;;;;;;30.96;42.09;101123.97;4930640;29;20091;-73
2021/05/23 12:21:26;;;;;;;5.32;2.10;;;;;;;30.66;42.06;101120.59;4921171;29;20445;-73
2021/05/23 12:24:12;;;;;;;3.10;2.17;;;;;;;30.67;43.51;101109.63;4920437;29;20052;-73
2021/05/23 12:26:58;;;;;;;4.30;2.30;;;;;;;31.22;42.36;101108.75;4917615;29;20038;-72
2021/05/23 12:29:43;;;;;;;3.78;2.13;;;;;;;30.76;43.77;101105.22;4918787;29;20040;-72
2021/05/23 12:32:42;;;;;;;2.30;2.10;;;;;;;30.04;42.94;101101.22;4930550;29;20486;-73
2021/05/23 12:35:39;;;;;;;2.85;2.05;;;;;;;30.81;42.47;101095.66;4924248;29;20043;-75
2021/05/23 12:38:25;;;;;;;4.13;2.08;;;;;;;31.25;41.24;101091.38;4920463;29;20357;-73
2021/05/23 12:41:12;;;;;;;3.05;2.10;;;;;;;31.20;41.84;101082.84;4919492;29;20031;-73
2021/05/23 12:43:58;;;;;;;3.53;2.00;;;;;;;31.04;41.17;101088.91;4906926;29;20032;-73
2021/05/23 12:46:45;;;;;;;3.42;2.10;;;;;;;30.48;40.16;101081.75;4906942;29;20099;-73
2021/05/23 12:49:34;;;;;;;4.00;1.90;;;;;;;30.64;41.10;101082.00;4907292;29;20067;-73
2021/05/23 12:52:19;;;;;;;4.38;2.30;;;;;;;30.72;42.89;101083.03;4906636;29;20504;-73